sensor_id;sensor_type;location;lat;lon;timestamp;pressure;altitude;pressure_sealevel;temperature;humidity
69245;BME280;56357;52.304;4.870;2022-08-18T00:02:07;101587.13;;;22.34;68.21
69245;BME280;56357;52.304;4.870;2022-08-18T00:04:35;101589.13;;;22.28;68.57
69245;BME280;56357;52.304;4.870;2022-08-18T00:07:04;101587.13;;;22.29;68.38
69245;BME280;56357;52.304;4.870;2022-08-18T00:09:33;101589.41;;;22.27;68.39
69245;BME280;56357;52.304;4.870;2022-08-18T00:12:04;101595.59;;;22.29;68.25
69245;BME280;56357;52.304;4.870;2022-08-18T00:14:31;101597.88;;;22.27;68.18
69245;BME280;56357;52.304;4.870;2022-08-18T00:16:58;101599.03;;;22.26;68.67
69245;BME280;56357;52.304;4.870;2022-08-18T00:19:25;101593.38;;;22.26;68.57
69245;BME280;56357;52.304;4.870;2022-08-18T00:21:52;101585.47;;;22.23;68.53
69245;BME280;56357;52.304;4.870;2022-08-18T00:24:18;101584.06;;;22.25;68.25
69245;BME280;56357;52.304;4.870;2022-08-18T00:26:45;101583.22;;;22.25;68.31
69245;BME280;56357;52.304;4.870;2022-08-18T00:29:11;101588.59;;;22.26;68.49
69245;BME280;56357;52.304;4.870;2022-08-18T00:31:37;101584.91;;;22.21;68.70
69245;BME280;56357;52.304;4.870;2022-08-18T00:34:04;101580.97;;;22.22;68.45
69245;BME280;56357;52.304;4.870;2022-08-18T00:36:32;101569.69;;;22.22;68.75
69245;BME280;56357;52.304;4.870;2022-08-18T00:38:59;101568.00;;;22.21;68.49
69245;BME280;56357;52.304;4.870;2022-08-18T00:41:26;101566.31;;;22.20;69.05
69245;BME280;56357;52.304;4.870;2022-08-18T00:43:54;101570.28;;;22.19;68.51
69245;BME280;56357;52.304;4.870;2022-08-18T00:46:27;101582.66;;;22.23;68.51
69245;BME280;56357;52.304;4.870;2022-08-18T00:48:54;101580.97;;;22.22;68.69
69245;BME280;56357;52.304;4.870;2022-08-18T00:51:25;101569.69;;;22.22;68.34
69245;BME280;56357;52.304;4.870;2022-08-18T00:54:05;101567.19;;;22.15;68.55
69245;BME280;56357;52.304;4.870;2022-08-18T00:56:41;101564.34;;;22.15;68.50
69245;BME280;56357;52.304;4.870;2022-08-18T00:59:15;101567.78;;;22.12;68.87
69245;BME280;56357;52.304;4.870;2022-08-18T01:01:43;101569.19;;;22.15;68.73
69245;BME280;56357;52.304;4.870;2022-08-18T01:04:16;101579.63;;;22.14;68.55
69245;BME280;56357;52.304;4.870;2022-08-18T01:06:49;101592.31;;;22.12;68.35
69245;BME280;56357;52.304;4.870;2022-08-18T01:09:17;101595.13;;;22.17;68.60
69245;BME280;56357;52.304;4.870;2022-08-18T01:11:44;101586.13;;;22.10;68.56
69245;BME280;56357;52.304;4.870;2022-08-18T01:14:12;101596.00;;;22.12;68.39
69245;BME280;56357;52.304;4.870;2022-08-18T01:16:44;101583.88;;;22.07;68.37
69245;BME280;56357;52.304;4.870;2022-08-18T01:19:28;101584.75;;;22.07;68.63
69245;BME280;56357;52.304;4.870;2022-08-18T01:22:37;101574.31;;;22.03;68.88
69245;BME280;56357;52.304;4.870;2022-08-18T01:25:09;101569.78;;;22.07;68.72
69245;BME280;56357;52.304;4.870;2022-08-18T01:27:52;101557.94;;;22.05;68.65
69245;BME280;56357;52.304;4.870;2022-08-18T01:30:21;101548.94;;;22.03;68.64
69245;BME280;56357;52.304;4.870;2022-08-18T01:32:50;101551.16;;;22.06;68.56
69245;BME280;56357;52.304;4.870;2022-08-18T01:35:18;101547.81;;;21.99;68.40
69245;BME280;56357;52.304;4.870;2022-08-18T01:37:47;101561.06;;;22.03;68.50
69245;BME280;56357;52.304;4.870;2022-08-18T01:40:16;101568.69;;;22.03;68.61
69245;BME280;56357;52.304;4.870;2022-08-18T01:42:42;101563.59;;;22.00;68.63
69245;BME280;56357;52.304;4.870;2022-08-18T01:45:10;101568.13;;;22.01;68.66
69245;BME280;56357;52.304;4.870;2022-08-18T01:47:38;101572.34;;;21.98;68.75
69245;BME280;56357;52.304;4.870;2022-08-18T01:50:06;101576.03;;;21.99;68.58
69245;BME280;56357;52.304;4.870;2022-08-18T01:52:34;101585.03;;;22.01;68.36
69245;BME280;56357;52.304;4.870;2022-08-18T01:55:02;101587.56;;;22.02;68.60
69245;BME280;56357;52.304;4.870;2022-08-18T01:57:32;101585.63;;;21.98;68.69
69245;BME280;56357;52.304;4.870;2022-08-18T02:00:03;101591.53;;;22.01;68.12
69245;BME280;56357;52.304;4.870;2022-08-18T02:02:31;101574.31;;;22.03;68.35
69245;BME280;56357;52.304;4.870;2022-08-18T02:05:03;101572.66;;;21.97;68.33
69245;BME280;56357;52.304;4.870;2022-08-18T02:07:30;101573.25;;;21.94;68.65
69245;BME280;56357;52.304;4.870;2022-08-18T02:09:57;101567.03;;;21.92;68.64
69245;BME280;56357;52.304;4.870;2022-08-18T02:12:23;101573.25;;;21.94;68.60
69245;BME280;56357;52.304;4.870;2022-08-18T02:14:49;101580.84;;;21.93;68.54
69245;BME280;56357;52.304;4.870;2022-08-18T02:17:17;101571.25;;;21.94;68.71
69245;BME280;56357;52.304;4.870;2022-08-18T02:19:45;101579.69;;;21.94;68.40
69245;BME280;56357;52.304;4.870;2022-08-18T02:22:16;101586.78;;;21.92;68.76
69245;BME280;56357;52.304;4.870;2022-08-18T02:24:43;101592.69;;;21.90;68.93
69245;BME280;56357;52.304;4.870;2022-08-18T02:27:12;101591.56;;;21.91;68.67
69245;BME280;56357;52.304;4.870;2022-08-18T02:29:39;101590.44;;;21.92;68.65
69245;BME280;56357;52.304;4.870;2022-08-18T02:32:06;101592.44;;;21.87;68.91
69245;BME280;56357;52.304;4.870;2022-08-18T02:34:34;101589.88;;;21.90;68.88
69245;BME280;56357;52.304;4.870;2022-08-18T02:37:01;101596.91;;;21.93;68.86
69245;BME280;56357;52.304;4.870;2022-08-18T02:39:28;101600.03;;;21.91;68.86
69245;BME280;56357;52.304;4.870;2022-08-18T02:41:55;101603.97;;;21.90;68.69
69245;BME280;56357;52.304;4.870;2022-08-18T02:44:21;101606.28;;;21.88;68.66
69245;BME280;56357;52.304;4.870;2022-08-18T02:46:52;101610.78;;;21.84;68.66
69245;BME280;56357;52.304;4.870;2022-08-18T02:49:19;101615.56;;;21.89;68.76
69245;BME280;56357;52.304;4.870;2022-08-18T02:51:45;101606.28;;;21.88;69.01
69245;BME280;56357;52.304;4.870;2022-08-18T02:54:11;101618.38;;;21.89;68.80
69245;BME280;56357;52.304;4.870;2022-08-18T02:56:38;101613.88;;;21.88;68.78
69245;BME280;56357;52.304;4.870;2022-08-18T02:59:07;101622.34;;;21.82;69.05
69245;BME280;56357;52.304;4.870;2022-08-18T03:01:37;101621.50;;;21.82;69.25
69245;BME280;56357;52.304;4.870;2022-08-18T03:04:05;101621.22;;;21.83;69.23
69245;BME280;56357;52.304;4.870;2022-08-18T03:06:33;101620.06;;;21.84;68.96
69245;BME280;56357;52.304;4.870;2022-08-18T03:09:00;101617.25;;;21.84;69.08
69245;BME280;56357;52.304;4.870;2022-08-18T03:11:28;101627.13;;;21.87;69.01
69245;BME280;56357;52.304;4.870;2022-08-18T03:13:55;101632.50;;;21.83;69.11
69245;BME280;56357;52.304;4.870;2022-08-18T03:16:23;101629.41;;;21.80;69.29
69245;BME280;56357;52.304;4.870;2022-08-18T03:18:50;101629.13;;;21.81;69.06
69245;BME280;56357;52.304;4.870;2022-08-18T03:21:21;101628.53;;;21.84;68.87
69245;BME280;56357;52.304;4.870;2022-08-18T03:23:49;101631.34;;;21.84;69.03
69245;BME280;56357;52.304;4.870;2022-08-18T03:26:17;101629.69;;;21.83;69.26
69245;BME280;56357;52.304;4.870;2022-08-18T03:28:46;101636.44;;;21.82;69.27
69245;BME280;56357;52.304;4.870;2022-08-18T03:31:14;101635.88;;;21.80;69.21
69245;BME280;56357;52.304;4.870;2022-08-18T03:33:42;101635.88;;;21.80;69.06
69245;BME280;56357;52.304;4.870;2022-08-18T03:36:12;101634.75;;;21.81;69.09
69245;BME280;56357;52.304;4.870;2022-08-18T03:38:41;101631.09;;;21.86;68.80
69245;BME280;56357;52.304;4.870;2022-08-18T03:41:10;101629.38;;;21.85;69.07
69245;BME280;56357;52.304;4.870;2022-08-18T03:43:37;101626.00;;;21.88;68.79
69245;BME280;56357;52.304;4.870;2022-08-18T03:46:08;101626.00;;;21.88;68.89
69245;BME280;56357;52.304;4.870;2022-08-18T03:48:39;101615.28;;;21.85;69.01
69245;BME280;56357;52.304;4.870;2022-08-18T03:51:10;101623.44;;;21.87;68.91
69245;BME280;56357;52.304;4.870;2022-08-18T03:53:38;101625.16;;;21.88;68.83
69245;BME280;56357;52.304;4.870;2022-08-18T03:56:06;101616.69;;;21.88;69.06
69245;BME280;56357;52.304;4.870;2022-08-18T03:59:05;101620.94;;;21.85;69.12
69245;BME280;56357;52.304;4.870;2022-08-18T04:01:36;101625.72;;;21.84;68.99
69245;BME280;56357;52.304;4.870;2022-08-18T04:04:05;101621.19;;;21.89;68.84
69245;BME280;56357;52.304;4.870;2022-08-18T04:06:35;101632.50;;;21.83;68.96
69245;BME280;56357;52.304;4.870;2022-08-18T04:09:05;101627.41;;;21.86;68.83
69245;BME280;56357;52.304;4.870;2022-08-18T04:11:33;101628.81;;;21.88;69.01
69245;BME280;56357;52.304;4.870;2022-08-18T04:14:00;101613.88;;;21.82;68.98
69245;BME280;56357;52.304;4.870;2022-08-18T04:16:27;101609.94;;;21.83;68.76
69245;BME280;56357;52.304;4.870;2022-08-18T04:18:54;101614.72;;;21.88;68.94
69245;BME280;56357;52.304;4.870;2022-08-18T04:21:24;101619.50;;;21.88;68.76
69245;BME280;56357;52.304;4.870;2022-08-18T04:23:50;101620.63;;;21.87;68.95
69245;BME280;56357;52.304;4.870;2022-08-18T04:26:16;101623.19;;;21.88;69.00
69245;BME280;56357;52.304;4.870;2022-08-18T04:28:44;101620.06;;;21.84;69.25
69245;BME280;56357;52.304;4.870;2022-08-18T04:31:13;101616.13;;;21.86;68.91
69245;BME280;56357;52.304;4.870;2022-08-18T04:33:42;101616.44;;;21.84;69.10
69245;BME280;56357;52.304;4.870;2022-08-18T04:36:11;101613.88;;;21.82;69.28
69245;BME280;56357;52.304;4.870;2022-08-18T04:38:39;101608.53;;;21.81;69.06
69245;BME280;56357;52.304;4.870;2022-08-18T04:41:11;101612.16;;;21.87;68.84
69245;BME280;56357;52.304;4.870;2022-08-18T04:43:39;101615.59;;;21.83;69.39
69245;BME280;56357;52.304;4.870;2022-08-18T04:46:06;101618.09;;;21.85;69.14
69245;BME280;56357;52.304;4.870;2022-08-18T04:48:38;101614.72;;;21.88;69.17
69245;BME280;56357;52.304;4.870;2022-08-18T04:51:16;101606.28;;;21.83;68.96
69245;BME280;56357;52.304;4.870;2022-08-18T04:53:44;101604.84;;;21.80;69.11
69245;BME280;56357;52.304;4.870;2022-08-18T04:56:22;101605.72;;;21.81;69.38
69245;BME280;56357;52.304;4.870;2022-08-18T04:58:57;101608.78;;;21.79;69.19
69245;BME280;56357;52.304;4.870;2022-08-18T05:01:30;101606.28;;;21.83;69.38
69245;BME280;56357;52.304;4.870;2022-08-18T05:03:57;101606.81;;;21.85;69.18
69245;BME280;56357;52.304;4.870;2022-08-18T05:06:25;101600.06;;;21.86;69.19
69245;BME280;56357;52.304;4.870;2022-08-18T05:09:01;101608.22;;;21.88;69.35
69245;BME280;56357;52.304;4.870;2022-08-18T05:11:30;101619.50;;;21.88;69.08
69245;BME280;56357;52.304;4.870;2022-08-18T05:13:59;101621.75;;;21.91;69.63
69245;BME280;56357;52.304;4.870;2022-08-18T05:16:28;101622.03;;;21.89;69.41
69245;BME280;56357;52.304;4.870;2022-08-18T05:19:05;101613.00;;;21.92;68.89
69245;BME280;56357;52.304;4.870;2022-08-18T05:21:33;101621.44;;;21.92;69.30
69245;BME280;56357;52.304;4.870;2022-08-18T05:24:01;101613.28;;;21.91;69.21
69245;BME280;56357;52.304;4.870;2022-08-18T05:26:28;101622.59;;;21.91;69.46
69245;BME280;56357;52.304;4.870;2022-08-18T05:28:54;101621.19;;;21.94;69.40
69245;BME280;56357;52.304;4.870;2022-08-18T05:31:23;101628.22;;;21.96;69.38
69245;BME280;56357;52.304;4.870;2022-08-18T05:33:51;101623.16;;;21.93;69.76
69245;BME280;56357;52.304;4.870;2022-08-18T05:39:15;101613.56;;;21.94;69.49
69245;BME280;56357;52.304;4.870;2022-08-18T05:41:51;101613.56;;;21.94;69.72
69245;BME280;56357;52.304;4.870;2022-08-18T05:44:22;101626.53;;;21.95;69.68
69245;BME280;56357;52.304;4.870;2022-08-18T05:47:13;101620.59;;;21.97;70.12
69245;BME280;56357;52.304;4.870;2022-08-18T05:49:42;101614.97;;;21.97;69.63
69245;BME280;56357;52.304;4.870;2022-08-18T05:52:15;101611.59;;;21.95;69.96
69245;BME280;56357;52.304;4.870;2022-08-18T05:54:49;101616.09;;;21.96;70.36
69245;BME280;56357;52.304;4.870;2022-08-18T05:57:45;101621.16;;;21.99;70.01
69245;BME280;56357;52.304;4.870;2022-08-18T06:00:16;101623.38;;;22.02;69.85
69245;BME280;56357;52.304;4.870;2022-08-18T06:02:52;101622.00;;;21.99;70.00
69245;BME280;56357;52.304;4.870;2022-08-18T06:05:45;101632.44;;;21.99;70.13
69245;BME280;56357;52.304;4.870;2022-08-18T06:08:15;101631.28;;;22.00;69.92
69245;BME280;56357;52.304;4.870;2022-08-18T06:10:47;101633.84;;;22.01;70.84
69245;BME280;56357;52.304;4.870;2022-08-18T06:13:14;101633.28;;;21.99;70.76
69245;BME280;56357;52.304;4.870;2022-08-18T06:16:20;101633.00;;;22.01;70.98
69245;BME280;56357;52.304;4.870;2022-08-18T06:19:03;101627.31;;;22.06;71.01
69245;BME280;56357;52.304;4.870;2022-08-18T06:32:35;101620.47;;;22.22;70.24
69245;BME280;56357;52.304;4.870;2022-08-18T06:35:23;101616.81;;;22.26;70.20
69245;BME280;56357;52.304;4.870;2022-08-18T06:38:20;101617.03;;;22.35;69.86
69245;BME280;56357;52.304;4.870;2022-08-18T06:41:23;101617.00;;;22.40;69.73
69245;BME280;56357;52.304;4.870;2022-08-18T06:44:03;101617.81;;;22.45;69.67
69245;BME280;56357;52.304;4.870;2022-08-18T06:47:15;101621.41;;;22.56;70.06
69245;BME280;56357;52.304;4.870;2022-08-18T06:52:38;101630.34;;;22.78;69.39
69245;BME280;56357;52.304;4.870;2022-08-18T06:55:17;101634.59;;;22.76;69.24
69245;BME280;56357;52.304;4.870;2022-08-18T06:57:58;101628.97;;;22.70;69.21
69245;BME280;56357;52.304;4.870;2022-08-18T07:00:29;101638.81;;;22.73;69.48
69245;BME280;56357;52.304;4.870;2022-08-18T07:03:02;101643.31;;;22.79;69.30
69245;BME280;56357;52.304;4.870;2022-08-18T07:05:34;101644.91;;;22.90;68.95
69245;BME280;56357;52.304;4.870;2022-08-18T07:08:17;101651.16;;;22.87;69.00
69245;BME280;56357;52.304;4.870;2022-08-18T07:10:50;101649.38;;;22.96;68.96
69245;BME280;56357;52.304;4.870;2022-08-18T07:13:24;101650.50;;;23.00;68.62
69245;BME280;56357;52.304;4.870;2022-08-18T07:15:53;101647.91;;;23.04;68.59
69245;BME280;56357;52.304;4.870;2022-08-18T07:18:27;101659.44;;;23.12;68.03
69245;BME280;56357;52.304;4.870;2022-08-18T07:20:59;101660.53;;;23.16;68.07
69245;BME280;56357;52.304;4.870;2022-08-18T07:23:37;101653.78;;;23.12;68.52
69245;BME280;56357;52.304;4.870;2022-08-18T07:26:11;101656.31;;;23.14;68.32
69245;BME280;56357;52.304;4.870;2022-08-18T07:28:49;101661.66;;;23.15;68.09
69245;BME280;56357;52.304;4.870;2022-08-18T07:31:32;101654.09;;;23.11;68.14
69245;BME280;56357;52.304;4.870;2022-08-18T07:34:10;101660.38;;;23.03;68.08
69245;BME280;56357;52.304;4.870;2022-08-18T07:36:47;101662.81;;;23.14;68.48
69245;BME280;56357;52.304;4.870;2022-08-18T07:39:22;101658.22;;;23.23;67.64
69245;BME280;56357;52.304;4.870;2022-08-18T07:42:02;101664.38;;;23.35;67.16
69245;BME280;56357;52.304;4.870;2022-08-18T07:47:24;101663.88;;;23.57;67.46
69245;BME280;56357;52.304;4.870;2022-08-18T07:49:53;101669.78;;;23.60;66.70
69245;BME280;56357;52.304;4.870;2022-08-18T07:52:38;101664.75;;;23.52;67.53
69245;BME280;56357;52.304;4.870;2022-08-18T07:55:10;101670.41;;;23.52;67.02
69245;BME280;56357;52.304;4.870;2022-08-18T07:57:51;101670.41;;;23.52;67.38
69245;BME280;56357;52.304;4.870;2022-08-18T08:00:35;101664.16;;;23.55;67.02
69245;BME280;56357;52.304;4.870;2022-08-18T08:11:24;101680.38;;;23.74;65.57
69245;BME280;56357;52.304;4.870;2022-08-18T08:14:05;101685.81;;;23.94;64.83
69245;BME280;56357;52.304;4.870;2022-08-18T08:16:49;101690.94;;;23.92;64.97
69245;BME280;56357;52.304;4.870;2022-08-18T08:22:21;101679.88;;;23.95;64.47
69245;BME280;56357;52.304;4.870;2022-08-18T08:27:26;101684.84;;;24.32;63.45
69245;BME280;56357;52.304;4.870;2022-08-18T08:30:07;101689.34;;;24.51;62.73
69245;BME280;56357;52.304;4.870;2022-08-18T08:32:41;101688.47;;;24.32;63.03
69245;BME280;56357;52.304;4.870;2022-08-18T08:35:12;101695.78;;;24.15;63.43
69245;BME280;56357;52.304;4.870;2022-08-18T08:37:43;101686.78;;;24.13;63.67
69245;BME280;56357;52.304;4.870;2022-08-18T08:40:17;101677.34;;;24.17;63.50
69245;BME280;56357;52.304;4.870;2022-08-18T08:42:58;101678.78;;;24.15;63.58
69245;BME280;56357;52.304;4.870;2022-08-18T08:45:32;101672.00;;;24.16;62.84
69245;BME280;56357;52.304;4.870;2022-08-18T08:48:13;101683.41;;;24.11;63.22
69245;BME280;56357;52.304;4.870;2022-08-18T08:55:56;101680.69;;;23.96;63.77
69245;BME280;56357;52.304;4.870;2022-08-18T08:58:33;101682.97;;;23.94;64.01
69245;BME280;56357;52.304;4.870;2022-08-18T09:01:02;101685.47;;;24.00;63.26
69245;BME280;56357;52.304;4.870;2022-08-18T09:03:43;101679.09;;;24.13;62.98
69245;BME280;56357;52.304;4.870;2022-08-18T09:06:34;101675.69;;;24.16;62.98
69245;BME280;56357;52.304;4.870;2022-08-18T09:21:02;101680.97;;;24.65;61.39
69245;BME280;56357;52.304;4.870;2022-08-18T09:23:43;101680.72;;;24.43;61.26
69245;BME280;56357;52.304;4.870;2022-08-18T09:29:16;101684.75;;;24.37;60.78
69245;BME280;56357;52.304;4.870;2022-08-18T09:32:29;101677.50;;;24.49;60.88
69245;BME280;56357;52.304;4.870;2022-08-18T09:35:02;101686.44;;;24.80;60.21
69245;BME280;56357;52.304;4.870;2022-08-18T09:37:47;101687.28;;;24.57;61.11
69245;BME280;56357;52.304;4.870;2022-08-18T09:40:35;101685.72;;;24.51;61.14
69245;BME280;56357;52.304;4.870;2022-08-18T09:43:32;101684.53;;;24.52;61.10
69245;BME280;56357;52.304;4.870;2022-08-18T09:46:02;101679.34;;;24.59;60.85
69245;BME280;56357;52.304;4.870;2022-08-18T09:48:34;101683.78;;;24.65;60.47
69245;BME280;56357;52.304;4.870;2022-08-18T09:51:32;101685.38;;;24.76;60.33
69245;BME280;56357;52.304;4.870;2022-08-18T09:54:12;101684.00;;;24.69;60.22
69245;BME280;56357;52.304;4.870;2022-08-18T10:02:00;101686.34;;;24.67;60.60
69245;BME280;56357;52.304;4.870;2022-08-18T10:04:30;101690.53;;;24.69;60.21
69245;BME280;56357;52.304;4.870;2022-08-18T10:07:33;101684.56;;;24.71;60.62
69245;BME280;56357;52.304;4.870;2022-08-18T10:15:47;101670.50;;;24.84;59.72
69245;BME280;56357;52.304;4.870;2022-08-18T10:28:56;101662.28;;;25.01;58.69
69245;BME280;56357;52.304;4.870;2022-08-18T10:31:24;101672.63;;;25.11;59.08
69245;BME280;56357;52.304;4.870;2022-08-18T10:34:05;101673.78;;;25.10;58.56
69245;BME280;56357;52.304;4.870;2022-08-18T10:36:50;101669.19;;;25.14;58.13
69245;BME280;56357;52.304;4.870;2022-08-18T10:39:23;101675.22;;;25.26;58.29
69245;BME280;56357;52.304;4.870;2022-08-18T10:42:01;101687.22;;;25.36;58.30
69245;BME280;56357;52.304;4.870;2022-08-18T10:44:33;101692.16;;;25.31;58.41
69245;BME280;56357;52.304;4.870;2022-08-18T10:47:03;101690.41;;;25.16;59.00
69245;BME280;56357;52.304;4.870;2022-08-18T10:49:30;101681.09;;;24.97;59.65
69245;BME280;56357;52.304;4.870;2022-08-18T10:52:10;101685.22;;;24.86;60.28
69245;BME280;56357;52.304;4.870;2022-08-18T11:00:50;101690.34;;;24.84;60.34
69245;BME280;56357;52.304;4.870;2022-08-18T11:06:21;101696.63;;;24.81;60.44
69245;BME280;56357;52.304;4.870;2022-08-18T11:08:58;101692.94;;;24.81;60.44
69245;BME280;56357;52.304;4.870;2022-08-18T11:11:30;101691.28;;;24.80;60.62
69245;BME280;56357;52.304;4.870;2022-08-18T11:16:56;101687.22;;;24.86;60.62
69245;BME280;56357;52.304;4.870;2022-08-18T11:19:27;101677.25;;;24.88;60.69
69245;BME280;56357;52.304;4.870;2022-08-18T11:21:53;101682.91;;;24.88;60.37
69245;BME280;56357;52.304;4.870;2022-08-18T11:24:28;101679.75;;;24.90;60.42
69245;BME280;56357;52.304;4.870;2022-08-18T11:27:01;101682.75;;;24.98;60.18
69245;BME280;56357;52.304;4.870;2022-08-18T11:32:24;101670.03;;;25.14;59.52
69245;BME280;56357;52.304;4.870;2022-08-18T11:35:01;101679.63;;;25.18;59.47
69245;BME280;56357;52.304;4.870;2022-08-18T11:40:22;101670.78;;;25.20;59.52
69245;BME280;56357;52.304;4.870;2022-08-18T11:45:26;101672.47;;;25.40;59.12
69245;BME280;56357;52.304;4.870;2022-08-18T11:53:59;101651.91;;;25.61;58.43
69245;BME280;56357;52.304;4.870;2022-08-18T11:56:34;101653.63;;;25.62;58.47
69245;BME280;56357;52.304;4.870;2022-08-18T11:59:06;101663.59;;;25.60;58.59
69245;BME280;56357;52.304;4.870;2022-08-18T12:07:05;101653.31;;;25.64;58.23
69245;BME280;56357;52.304;4.870;2022-08-18T12:09:48;101654.97;;;25.65;58.28
69245;BME280;56357;52.304;4.870;2022-08-18T12:12:33;101647.50;;;25.69;58.15
69245;BME280;56357;52.304;4.870;2022-08-18T12:17:46;101647.00;;;25.67;58.15
69245;BME280;56357;52.304;4.870;2022-08-18T12:20:14;101642.47;;;25.66;58.13
69245;BME280;56357;52.304;4.870;2022-08-18T12:22:43;101630.19;;;25.57;58.39
69245;BME280;56357;52.304;4.870;2022-08-18T12:25:12;101631.53;;;25.59;58.20
69245;BME280;56357;52.304;4.870;2022-08-18T12:27:39;101629.44;;;25.65;58.25
69245;BME280;56357;52.304;4.870;2022-08-18T12:30:08;101615.34;;;25.60;58.56
69245;BME280;56357;52.304;4.870;2022-08-18T12:32:35;101616.72;;;25.49;58.87
69245;BME280;56357;52.304;4.870;2022-08-18T12:35:04;101611.47;;;25.56;58.45
69245;BME280;56357;52.304;4.870;2022-08-18T12:37:30;101613.69;;;25.59;58.62
69245;BME280;56357;52.304;4.870;2022-08-18T12:39:57;101617.34;;;25.59;58.86
69245;BME280;56357;52.304;4.870;2022-08-18T12:42:25;101624.78;;;25.55;59.05
69245;BME280;56357;52.304;4.870;2022-08-18T12:44:52;101627.88;;;25.59;58.57
69245;BME280;56357;52.304;4.870;2022-08-18T12:47:21;101632.69;;;25.58;58.02
69245;BME280;56357;52.304;4.870;2022-08-18T12:49:49;101620.41;;;25.63;58.33
69245;BME280;56357;52.304;4.870;2022-08-18T12:52:17;101618.31;;;25.68;58.32
69245;BME280;56357;52.304;4.870;2022-08-18T12:54:45;101620.19;;;25.73;58.09
69245;BME280;56357;52.304;4.870;2022-08-18T12:57:20;101614.31;;;25.83;57.44
69245;BME280;56357;52.304;4.870;2022-08-18T12:59:47;101616.22;;;25.87;57.65
69245;BME280;56357;52.304;4.870;2022-08-18T13:02:14;101611.16;;;25.84;58.00
69245;BME280;56357;52.304;4.870;2022-08-18T13:04:41;101615.59;;;25.90;57.76
69245;BME280;56357;52.304;4.870;2022-08-18T13:07:10;101621.69;;;25.97;57.34
69245;BME280;56357;52.304;4.870;2022-08-18T13:09:38;101617.50;;;25.95;57.46
69245;BME280;56357;52.304;4.870;2022-08-18T13:12:05;101615.59;;;25.90;57.93
69245;BME280;56357;52.304;4.870;2022-08-18T13:14:33;101618.84;;;25.97;57.22
69245;BME280;56357;52.304;4.870;2022-08-18T13:16:59;101629.25;;;26.02;57.23
69245;BME280;56357;52.304;4.870;2022-08-18T13:19:27;101621.19;;;25.95;57.59
69245;BME280;56357;52.304;4.870;2022-08-18T13:21:54;101617.50;;;25.95;57.76
69245;BME280;56357;52.304;4.870;2022-08-18T13:24:20;101624.63;;;25.92;57.73
69245;BME280;56357;52.304;4.870;2022-08-18T13:26:50;101631.34;;;25.83;58.22
69245;BME280;56357;52.304;4.870;2022-08-18T13:29:17;101637.69;;;25.80;58.56
69245;BME280;56357;52.304;4.870;2022-08-18T13:31:45;101636.38;;;25.86;58.02
69245;BME280;56357;52.304;4.870;2022-08-18T13:34:12;101627.47;;;25.92;57.74
69245;BME280;56357;52.304;4.870;2022-08-18T13:36:39;101630.50;;;25.96;57.57
69245;BME280;56357;52.304;4.870;2022-08-18T13:39:17;101633.34;;;25.96;57.06
69245;BME280;56357;52.304;4.870;2022-08-18T13:41:45;101636.41;;;25.99;57.20
69245;BME280;56357;52.304;4.870;2022-08-18T13:44:14;101642.41;;;25.98;57.21
69245;BME280;56357;52.304;4.870;2022-08-18T13:46:42;101647.53;;;25.96;57.46
69245;BME280;56357;52.304;4.870;2022-08-18T13:49:21;101656.38;;;25.94;57.15
69245;BME280;56357;52.304;4.870;2022-08-18T13:51:49;101652.81;;;25.89;56.94
69245;BME280;56357;52.304;4.870;2022-08-18T13:54:22;101655.75;;;25.84;57.04
69245;BME280;56357;52.304;4.870;2022-08-18T13:56:49;101662.38;;;25.79;57.12
69245;BME280;56357;52.304;4.870;2022-08-18T13:59:16;101649.09;;;25.75;56.98
69245;BME280;56357;52.304;4.870;2022-08-18T14:01:43;101654.47;;;25.76;57.00
69245;BME280;56357;52.304;4.870;2022-08-18T14:04:11;101655.41;;;25.72;57.39
69245;BME280;56357;52.304;4.870;2022-08-18T14:06:38;101648.38;;;25.69;57.45
69245;BME280;56357;52.304;4.870;2022-08-18T14:09:05;101661.81;;;25.64;57.47
69245;BME280;56357;52.304;4.870;2022-08-18T14:11:33;101657.59;;;25.61;57.48
69245;BME280;56357;52.304;4.870;2022-08-18T14:14:02;101668.13;;;25.61;57.55
69245;BME280;56357;52.304;4.870;2022-08-18T14:16:30;101669.56;;;25.58;57.34
69245;BME280;56357;52.304;4.870;2022-08-18T14:18:57;101669.38;;;25.55;57.38
69245;BME280;56357;52.304;4.870;2022-08-18T14:21:47;101665.34;;;25.56;57.74
69245;BME280;56357;52.304;4.870;2022-08-18T14:24:33;101656.00;;;25.55;57.03
69245;BME280;56357;52.304;4.870;2022-08-18T14:27:18;101656.25;;;25.59;56.87
69245;BME280;56357;52.304;4.870;2022-08-18T14:29:45;101653.94;;;25.61;56.50
69245;BME280;56357;52.304;4.870;2022-08-18T14:32:13;101642.91;;;25.73;56.49
69245;BME280;56357;52.304;4.870;2022-08-18T14:34:39;101638.19;;;25.82;56.15
69245;BME280;56357;52.304;4.870;2022-08-18T14:37:06;101642.06;;;25.86;56.09
69245;BME280;56357;52.304;4.870;2022-08-18T14:39:33;101634.53;;;25.95;55.94
69245;BME280;56357;52.304;4.870;2022-08-18T14:42:00;101639.34;;;25.94;55.71
69245;BME280;56357;52.304;4.870;2022-08-18T14:44:26;101646.50;;;25.92;55.87
69245;BME280;56357;52.304;4.870;2022-08-18T14:46:53;101644.63;;;25.87;55.92
69245;BME280;56357;52.304;4.870;2022-08-18T14:49:25;101648.69;;;25.81;55.65
69245;BME280;56357;52.304;4.870;2022-08-18T14:51:51;101640.50;;;25.80;55.67
69245;BME280;56357;52.304;4.870;2022-08-18T14:54:18;101637.16;;;25.78;55.95
69245;BME280;56357;52.304;4.870;2022-08-18T14:56:44;101642.28;;;25.76;55.98
69245;BME280;56357;52.304;4.870;2022-08-18T14:59:11;101648.38;;;25.69;56.26
69245;BME280;56357;52.304;4.870;2022-08-18T15:01:37;101642.13;;;25.54;56.73
69245;BME280;56357;52.304;4.870;2022-08-18T15:04:03;101644.53;;;25.47;56.87
69245;BME280;56357;52.304;4.870;2022-08-18T15:06:30;101650.13;;;25.52;57.12